Time;durP1;ratioP1;P1;durP2;ratioP2;P2;SDS_P1;SDS_P2;PMS_P1;PMS_P2;Temp;Humidity;BMP_temperature;BMP_pressure;BME280_temperature;BME280_humidity;BME280_pressure;Samples;Min_cycle;Max_cycle;Signal;HPM_P1;HPM_P2
2023/01/09 00:00:08;;;;;;;2.15;1.95;;;;;;;8.82;66.67;99906.69;18414600;32;20111;-58
2023/01/09 00:10:12;;;;;;;1.75;0.90;;;;;;;8.54;66.79;99902.41;18423527;32;20089;-58
2023/01/09 00:20:16;;;;;;;1.33;1.23;;;;;;;8.49;66.21;99895.47;18422938;32;20119;-58
2023/01/09 00:30:20;;;;;;;1.08;1.02;;;;;;;8.24;65.89;99898.06;18422807;32;20381;-57
2023/01/09 00:40:24;;;;;;;1.65;1.55;;;;;;;8.02;65.86;99888.56;18422086;32;20097;-58
2023/01/09 00:50:30;;;;;;;1.92;1.83;;;;;;;7.75;66.20;99872.09;18421566;32;20188;-58
2023/01/09 01:00:35;;;;;;;12.10;9.13;;;;;;;7.64;66.37;99871.22;18421755;32;20117;-58
2023/01/09 01:10:38;;;;;;;2.15;1.42;;;;;;;7.57;66.93;99883.31;18421053;32;20165;-58
2023/01/09 01:20:44;;;;;;;0.93;0.93;;;;;;;7.74;66.93;99877.28;18420448;32;20381;-58
2023/01/09 01:30:47;;;;;;;3.37;2.22;;;;;;;7.78;67.44;99853.06;18420065;32;20117;-58
2023/01/09 01:40:54;;;;;;;0.95;0.95;;;;;;;8.06;67.79;99837.41;18419814;32;20468;-58
2023/01/09 01:51:01;;;;;;;0.60;0.60;;;;;;;8.78;69.12;99816.47;18419566;32;20174;-58
2023/01/09 02:01:05;;;;;;;1.67;1.58;;;;;;;9.18;68.47;99805.00;18418861;32;20432;-57
2023/01/09 02:11:11;;;;;;;2.15;1.95;;;;;;;9.51;67.35;99788.28;18418932;31;20460;-58
2023/01/09 02:21:23;;;;;;;1.05;1.05;;;;;;;9.92;65.78;99786.19;18419438;32;20491;-58
2023/01/09 02:31:33;;;;;;;0.75;0.75;;;;;;;10.12;65.33;99764.28;18417434;32;20093;-58
2023/01/09 02:41:39;;;;;;;0.60;0.60;;;;;;;10.01;65.55;99764.37;18416893;32;20093;-58
2023/01/09 02:51:51;;;;;;;0.70;0.70;;;;;;;10.14;65.49;99763.34;18417144;32;20089;-58
2023/01/09 03:02:22;;;;;;;0.80;0.80;;;;;;;10.24;65.94;99755.44;18416333;32;20137;-58
2023/01/09 03:12:28;;;;;;;2.97;1.43;;;;;;;10.40;65.47;99741.34;18415828;31;20102;-58
2023/01/09 03:22:31;;;;;;;0.50;0.50;;;;;;;10.39;65.31;99728.31;18416417;32;20465;-58
2023/01/09 03:32:36;;;;;;;0.60;0.60;;;;;;;10.34;65.50;99717.94;18406456;32;20111;-58
2023/01/09 03:42:39;;;;;;;0.70;0.70;;;;;;;10.06;66.35;99720.88;18391531;32;20136;-59
2023/01/09 03:52:43;;;;;;;2.72;2.10;;;;;;;9.98;66.87;99710.50;18388937;32;20097;-59
2023/01/09 04:02:46;;;;;;;0.90;0.85;;;;;;;9.92;67.17;99704.50;18387349;32;20133;-59
2023/01/09 04:12:51;;;;;;;1.58;0.95;;;;;;;9.88;67.67;99692.41;18389543;32;20412;-58
2023/01/09 04:22:54;;;;;;;5.82;2.72;;;;;;;9.96;67.92;99698.38;18387427;32;20342;-58
2023/01/09 04:32:59;;;;;;;1.67;1.58;;;;;;;9.98;67.83;99704.44;18388739;32;20441;-58
2023/01/09 04:43:02;;;;;;;0.80;0.80;;;;;;;9.88;67.99;99708.03;18387269;31;20127;-58
2023/01/09 04:53:06;;;;;;;2.10;2.00;;;;;;;9.93;67.93;99708.84;18386455;32;20177;-58
2023/01/09 05:03:09;;;;;;;0.98;0.98;;;;;;;9.98;67.72;99709.66;18386239;32;20112;-59
2023/01/09 05:13:14;;;;;;;0.70;0.70;;;;;;;9.99;67.76;99716.59;18385949;32;20089;-57
2023/01/09 05:23:17;;;;;;;0.90;0.88;;;;;;;9.91;68.00;99698.44;18383870;32;20400;-58
2023/01/09 05:33:22;;;;;;;1.67;1.58;;;;;;;10.02;67.87;99694.84;18386707;32;20112;-58
2023/01/09 05:43:25;;;;;;;0.95;0.95;;;;;;;9.88;68.48;99687.19;18412253;32;20871;-58
2023/01/09 05:53:29;;;;;;;0.80;0.80;;;;;;;9.98;68.01;99694.88;18386475;32;20093;-57
2023/01/09 06:03:33;;;;;;;4.53;1.60;;;;;;;9.84;68.62;99684.59;18383140;32;20113;-58
2023/01/09 06:13:38;;;;;;;0.70;0.70;;;;;;;9.98;68.05;99679.22;18360351;32;20094;-58
2023/01/09 06:23:41;;;;;;;1.42;1.02;;;;;;;9.91;68.26;99692.34;18412905;32;20143;-57
2023/01/09 06:33:45;;;;;;;0.55;0.55;;;;;;;9.81;68.50;99682.03;18382140;32;20657;-57
2023/01/09 06:43:48;;;;;;;1.58;1.48;;;;;;;9.83;68.36;99702.88;18353425;32;20444;-58
2023/01/09 06:53:53;;;;;;;0.70;0.70;;;;;;;9.84;68.44;99697.63;18352477;32;20127;-58
2023/01/09 07:03:56;;;;;;;2.35;2.10;;;;;;;9.88;68.69;99705.44;18352407;32;20197;-58
2023/01/09 07:14:01;;;;;;;10.70;3.08;;;;;;;9.94;68.29;99713.16;18402830;32;20178;-57
2023/01/09 07:24:04;;;;;;;2.22;2.03;;;;;;;9.76;69.27;99717.69;18370357;32;20109;-57
2023/01/09 07:34:09;;;;;;;1.60;1.50;;;;;;;9.65;70.03;99693.47;18397149;32;20119;-58
2023/01/09 07:44:13;;;;;;;2.45;1.95;;;;;;;9.69;70.76;99687.38;18349942;32;20089;-58
2023/01/09 07:54:17;;;;;;;0.77;0.77;;;;;;;9.81;70.32;99697.66;18365721;32;20212;-58
2023/01/09 08:04:22;;;;;;;0.60;0.60;;;;;;;10.10;69.95;99678.22;18369296;32;20085;-58
2023/01/09 08:14:27;;;;;;;0.70;0.70;;;;;;;10.28;69.84;99681.50;18360071;32;20688;-58
2023/01/09 08:24:31;;;;;;;0.80;0.80;;;;;;;10.39;69.34;99666.56;18417214;32;20121;-58
2023/01/09 08:34:36;;;;;;;0.60;0.60;;;;;;;10.49;68.91;99656.91;18422517;32;20116;-58
2023/01/09 08:55:02;;;;;;;1.40;0.98;;;;;;;10.57;68.92;99654.19;18357956;31;20105;-58
2023/01/09 09:05:06;;;;;;;2.45;2.25;;;;;;;10.54;69.26;99680.31;18357233;32;20141;-58
2023/01/09 09:15:15;;;;;;;0.80;0.80;;;;;;;10.34;69.58;99660.56;18356946;32;20342;-58
2023/01/09 09:25:19;;;;;;;0.82;0.82;;;;;;;10.02;70.62;99651.37;18360188;31;20101;-58
2023/01/09 09:35:23;;;;;;;2.05;1.58;;;;;;;9.94;69.74;99630.63;18357411;32;20095;-58
2023/01/09 09:45:36;;;;;;;1.33;1.23;;;;;;;10.26;67.96;99625.88;18418633;32;20119;-58
2023/01/09 09:55:41;;;;;;;2.25;1.52;;;;;;;10.48;67.30;99608.22;18419050;32;20433;-58
2023/01/09 10:05:46;;;;;;;1.30;0.93;;;;;;;10.51;68.21;99609.88;18418257;32;20119;-58
2023/01/09 10:15:56;;;;;;;3.65;2.97;;;;;;;10.50;68.52;99597.72;18418299;32;20124;-58
2023/01/09 10:26:02;;;;;;;1.35;1.25;;;;;;;10.40;68.18;99582.19;18418150;32;20114;-58
2023/01/09 10:36:23;;;;;;;1.70;1.60;;;;;;;10.52;67.15;99586.38;18417290;32;20360;-58
2023/01/09 10:46:30;;;;;;;2.03;1.87;;;;;;;10.43;67.12;99575.22;18416754;32;20109;-58
2023/01/09 10:56:37;;;;;;;1.17;1.17;;;;;;;10.03;68.23;99576.63;18417076;31;20101;-58
2023/01/09 11:06:45;;;;;;;0.73;0.73;;;;;;;10.21;68.26;99571.16;18406986;32;20101;-58
2023/01/09 11:16:56;;;;;;;1.75;1.33;;;;;;;10.21;68.40;99555.50;18368387;32;20093;-58
2023/01/09 11:27:26;;;;;;;0.67;0.67;;;;;;;9.43;71.07;99529.56;18375223;32;20101;-58
2023/01/09 11:37:31;;;;;;;3.40;1.23;;;;;;;10.03;69.15;99527.94;18392514;31;20539;-58
2023/01/09 11:47:39;;;;;;;0.80;0.80;;;;;;;9.80;70.39;99492.63;18350776;32;20109;-58
2023/01/09 11:57:44;;;;;;;0.98;0.98;;;;;;;9.98;69.68;99501.91;18352960;32;20089;-58
2023/01/09 12:08:09;;;;;;;1.80;1.70;;;;;;;10.06;69.40;99507.03;18359696;32;20115;-58
2023/01/09 12:18:31;;;;;;;2.17;1.98;;;;;;;10.22;69.26;99504.19;18361877;31;20435;-58
2023/01/09 12:28:48;;;;;;;1.05;1.05;;;;;;;10.15;69.33;99487.78;18358422;32;20462;-58
2023/01/09 12:38:55;;;;;;;1.23;1.12;;;;;;;10.10;70.07;99485.25;18382919;32;20097;-58
2023/01/09 12:49:22;;;;;;;0.80;0.80;;;;;;;10.27;69.40;99466.72;18396524;32;20143;-59
2023/01/09 12:59:32;;;;;;;1.45;1.25;;;;;;;10.21;69.59;99452.91;18372162;32;20100;-58
2023/01/09 13:09:39;;;;;;;1.40;1.30;;;;;;;10.30;69.25;99444.94;18390770;32;20107;-58
2023/01/09 13:19:45;;;;;;;1.10;1.05;;;;;;;10.35;69.17;99439.66;18358832;32;20116;-58
2023/01/09 13:29:50;;;;;;;0.80;0.80;;;;;;;10.32;69.22;99437.94;18356647;32;20662;-58
2023/01/09 13:39:59;;;;;;;0.82;0.82;;;;;;;10.34;69.22;99432.72;18405378;32;20452;-58
2023/01/09 13:50:23;;;;;;;1.67;0.82;;;;;;;10.31;69.53;99441.44;18414952;32;20170;-58
2023/01/09 14:00:51;;;;;;;1.10;1.08;;;;;;;10.27;69.60;99435.41;18418797;31;20347;-58
2023/01/09 14:10:56;;;;;;;2.50;1.40;;;;;;;10.30;69.58;99444.09;18417475;32;20379;-58
2023/01/09 14:21:03;;;;;;;2.87;2.67;;;;;;;10.26;69.63;99445.88;18414911;32;20488;-58
2023/01/09 14:31:08;;;;;;;0.50;0.50;;;;;;;10.25;69.62;99450.22;18403479;32;20339;-58
2023/01/09 14:41:56;;;;;;;0.70;0.70;;;;;;;10.13;69.99;99443.47;18352590;32;20120;-58
2023/01/09 14:51:45;;;;;;;2.70;1.17;;;;;;;10.18;70.00;99426.91;18349168;32;20113;-58
2023/01/09 15:01:54;;;;;;;0.95;0.95;;;;;;;10.19;69.67;99426.00;18401219;32;20142;-58
2023/01/09 15:12:02;;;;;;;1.35;1.20;;;;;;;10.19;69.55;99436.44;18372425;32;20119;-59
2023/01/09 15:22:21;;;;;;;1.17;1.17;;;;;;;10.23;69.23;99432.88;18409757;32;20103;-58
2023/01/09 15:32:26;;;;;;;1.10;0.90;;;;;;;10.10;69.60;99437.44;18363475;32;20357;-59
2023/01/09 15:52:55;;;;;;;0.82;0.82;;;;;;;10.04;69.70;99438.38;18389462;32;20395;-58
2023/01/09 16:03:12;;;;;;;3.83;2.92;;;;;;;10.10;69.34;99430.47;18358263;32;20105;-58
2023/01/09 16:13:16;;;;;;;5.12;2.60;;;;;;;9.99;69.84;99419.38;18360822;32;20100;-58
2023/01/09 16:23:23;;;;;;;1.95;1.85;;;;;;;9.91;69.98;99397.75;18355008;32;20116;-58
2023/01/09 16:33:28;;;;;;;3.70;3.35;;;;;;;10.03;69.55;99397.56;18358697;32;20154;-58
2023/01/09 16:43:32;;;;;;;1.85;1.62;;;;;;;9.95;69.75;99389.00;18355332;32;20145;-58
2023/01/09 16:53:35;;;;;;;4.28;3.95;;;;;;;9.86;70.06;99390.00;18399900;32;20124;-58
2023/01/09 17:03:40;;;;;;;2.00;1.60;;;;;;;9.80;70.31;99383.16;18414162;32;20089;-57
2023/01/09 17:13:46;;;;;;;2.25;2.12;;;;;;;9.79;70.37;99380.56;18422661;32;20089;-59
2023/01/09 17:28:30;;;;;;;1.92;1.75;;;;;;;9.93;70.06;99373.41;18403010;32;20481;-58
2023/01/09 17:34:15;;;;;;;0.80;0.80;;;;;;;9.89;70.29;99360.44;18403430;32;20675;-58
2023/01/09 17:44:20;;;;;;;1.60;1.52;;;;;;;9.88;70.41;99358.72;18381221;32;20098;-57
2023/01/09 17:54:23;;;;;;;1.83;1.67;;;;;;;9.98;70.07;99370.72;18385884;32;20190;-57
2023/01/09 18:04:28;;;;;;;1.98;1.42;;;;;;;9.96;70.15;99370.72;18413288;31;20459;-58
2023/01/09 18:14:31;;;;;;;1.10;1.10;;;;;;;9.95;70.24;99365.53;18421038;32;20162;-58
2023/01/09 18:24:35;;;;;;;1.90;1.60;;;;;;;9.77;70.98;99358.88;18420414;32;20473;-58
2023/01/09 18:34:38;;;;;;;1.95;1.85;;;;;;;9.80;70.84;99345.78;18420655;32;20116;-58
2023/01/09 18:44:43;;;;;;;2.15;1.58;;;;;;;9.79;71.00;99344.06;18420048;32;20124;-58
2023/01/09 18:54:46;;;;;;;2.05;1.95;;;;;;;9.81;70.98;99330.13;18390093;32;20133;-57
2023/01/09 19:04:51;;;;;;;5.40;1.62;;;;;;;9.86;70.70;99324.84;18401155;32;20430;-58
2023/01/09 19:14:55;;;;;;;0.50;0.50;;;;;;;9.87;70.84;99305.72;18409935;32;20105;-58
2023/01/09 19:24:59;;;;;;;1.23;1.10;;;;;;;9.82;71.05;99303.19;18372512;32;20524;-58
2023/01/09 19:35:03;;;;;;;0.85;0.85;;;;;;;9.78;71.08;99295.44;18352253;32;20382;-58
2023/01/09 19:45:10;;;;;;;3.33;3.03;;;;;;;9.90;70.75;99287.41;18351504;32;20515;-58
2023/01/09 19:55:14;;;;;;;2.67;2.58;;;;;;;9.72;71.37;99285.97;18347279;32;89068;-58
2023/01/09 20:05:18;;;;;;;1.00;1.00;;;;;;;9.92;70.96;99292.59;18412722;32;20081;-57
2023/01/09 20:15:21;;;;;;;0.90;0.90;;;;;;;10.03;70.48;99293.25;18390936;32;20472;-58
2023/01/09 20:25:26;;;;;;;1.42;1.33;;;;;;;10.00;70.65;99288.09;18379890;32;20108;-58
2023/01/09 20:35:30;;;;;;;0.80;0.80;;;;;;;10.02;70.57;99282.88;18360016;32;20150;-58
2023/01/09 20:45:34;;;;;;;1.02;1.02;;;;;;;9.92;70.82;99266.53;18353711;32;20645;-58
2023/01/09 20:55:38;;;;;;;0.88;0.77;;;;;;;9.83;71.32;99257.13;18361017;32;20113;-58
2023/01/09 21:05:43;;;;;;;0.65;0.65;;;;;;;9.89;71.00;99246.56;18370241;31;20093;-58
2023/01/09 21:15:48;;;;;;;1.60;1.10;;;;;;;9.75;71.84;99252.03;18412067;32;20088;-58
2023/01/09 21:25:53;;;;;;;0.70;0.70;;;;;;;9.91;71.17;99246.56;18402258;32;20622;-58
2023/01/09 21:35:58;;;;;;;1.27;0.98;;;;;;;9.70;71.70;99248.66;18358907;32;20097;-57
2023/01/09 21:56:26;;;;;;;0.80;0.80;;;;;;;9.90;71.44;99248.28;18484586;32;20119;-58
2023/01/09 22:06:30;;;;;;;0.82;0.82;;;;;;;9.91;71.54;99243.97;18485714;32;20169;-58
2023/01/09 22:16:33;;;;;;;1.08;1.08;;;;;;;9.92;71.66;99243.06;18484227;32;20453;-58
2023/01/09 22:26:38;;;;;;;0.73;0.73;;;;;;;9.81;71.96;99238.03;18455871;32;20093;-58
2023/01/09 22:36:41;;;;;;;0.70;0.70;;;;;;;9.92;71.63;99232.63;18367072;32;20105;-58
2023/01/09 22:46:48;;;;;;;1.42;1.35;;;;;;;9.85;71.98;99224.91;18387688;32;20081;-58
2023/01/09 22:56:51;;;;;;;0.62;0.62;;;;;;;10.00;71.34;99234.19;18354820;32;20097;-58
2023/01/09 23:06:56;;;;;;;0.77;0.77;;;;;;;10.03;71.36;99222.87;18416044;32;20086;-58
2023/01/09 23:16:59;;;;;;;0.60;0.60;;;;;;;9.80;71.80;99221.56;18414300;32;20089;-58
2023/01/09 23:27:04;;;;;;;1.50;1.23;;;;;;;10.16;70.77;99225.25;18415953;32;20096;-58
2023/01/09 23:37:08;;;;;;;0.60;0.60;;;;;;;10.19;70.41;99219.97;18442278;31;20482;-58
2023/01/09 23:47:13;;;;;;;0.70;0.70;;;;;;;10.27;70.23;99218.06;18414867;32;20113;-58
2023/01/09 23:57:16;;;;;;;0.52;0.52;;;;;;;10.23;70.05;99211.19;18420526;31;20133;-58
